首页
METAR-TAF:

METAR-TAF

机场 :

巴格達國際機場

巴格达, 伊拉克

纬度: 33-15-45N, 经度: 44-14-04E, 海拔: 35米

当前天气观测

该预报发布于31分钟前的06:00 UTC
风速4节,风向东南,在之间变化
温度 36°C
湿度 22%
气压 1006 hPa
能见度10公里或以上
1500米以下无云,无积雨云

METAR: ORBI 150600Z 13004KT 100V170 CAVOK 36/11 Q1006 NOSIG

时间: 09:31 (06:31 UTC)

预报

该预报发布于3小时和31分钟前的03:00 UTC
预报有效从15日的 06点(UTC)到 16日的 06点(UTC)
风速6节,风向东南
能見度: 8000

TAF: ORBI 150300Z 1506/1606 14006KT 8000 NSC

超过4000个机场的气象观测和天气预报(METAR&TAF报告)。

可查询的气象台以黄色和红色小点在地图上表示。

将鼠标移到小点上方,可查看气象台名称。

然后点击查看天气观测和预报。

如需切换地图:点击带黑十字的绿色按钮放大地图;点击带横线的绿色按钮缩小地图;或者点击绿色箭头查看邻近地区的地图。


METAR-TAF: